createdAt,value
2023-02-02T00:22:44.389Z,1.70
2023-02-02T00:37:47.640Z,1.80
2023-02-02T00:52:50.728Z,1.70
2023-02-02T01:07:53.643Z,1.50
2023-02-02T01:22:56.518Z,1.60
2023-02-02T01:38:00.585Z,1.40
2023-02-02T01:53:19.431Z,1.60
2023-02-02T02:08:43.752Z,1.30
2023-02-02T02:24:50.185Z,1.70
2023-02-02T02:40:37.869Z,1.30
2023-02-02T02:56:31.593Z,1.30
2023-02-02T03:11:35.292Z,1.60
2023-02-02T03:26:37.959Z,1.50
2023-02-02T03:41:40.625Z,1.40
2023-02-02T03:56:43.068Z,1.40
2023-02-02T04:12:00.237Z,0.90
2023-02-02T04:27:17.546Z,1.20
2023-02-02T04:42:20.419Z,0.60
2023-02-02T04:57:37.975Z,0.90
2023-02-02T05:12:55.701Z,0.80
2023-02-02T05:27:58.185Z,0.90
2023-02-02T05:43:00.616Z,0.80
2023-02-02T05:58:17.636Z,1.10
2023-02-02T06:13:21.276Z,1.00
2023-02-02T06:28:24.089Z,0.90
2023-02-02T06:43:41.338Z,1.30
2023-02-02T06:58:44.033Z,1.40
2023-02-02T07:13:49.119Z,1.40
2023-02-02T07:28:52.016Z,1.30
2023-02-02T07:43:54.974Z,1.80
2023-02-02T07:58:59.801Z,1.90
2023-02-02T08:14:05.401Z,1.80
2023-02-02T08:29:08.927Z,1.50
2023-02-02T08:44:15.498Z,1.80
2023-02-02T08:59:19.314Z,2.20
2023-02-02T09:14:22.778Z,1.90
2023-02-02T09:29:25.450Z,1.70
2023-02-02T09:44:56.477Z,1.70
2023-02-02T09:59:59.572Z,1.60
2023-02-02T10:15:22.790Z,1.70
2023-02-02T10:30:44.825Z,1.20
2023-02-02T10:45:51.216Z,0.90
2023-02-02T11:01:07.390Z,1.10
2023-02-02T11:16:16.170Z,0.80
2023-02-02T11:31:35.263Z,0.70
2023-02-02T11:46:38.770Z,0.80
2023-02-02T12:01:43.704Z,1.20
2023-02-02T12:17:11.282Z,1.00
2023-02-02T12:32:57.728Z,1.40
2023-02-02T12:48:51.569Z,1.00
2023-02-02T13:20:14.916Z,1.30
2023-02-02T13:35:33.734Z,0.90
2023-02-02T13:51:12.465Z,0.90
2023-02-02T14:06:19.694Z,1.20
2023-02-02T14:21:40.907Z,0.70
2023-02-02T14:37:09.514Z,2.20
2023-02-02T14:52:23.628Z,1.20
2023-02-02T15:07:28.815Z,1.70
2023-02-02T15:22:57.001Z,0.90
2023-02-02T15:38:07.460Z,0.90
2023-02-02T16:08:35.043Z,1.00
2023-02-02T16:23:39.938Z,0.90
2023-02-02T16:38:44.848Z,1.10
2023-02-02T17:09:48.105Z,1.40
2023-02-02T17:24:53.566Z,1.90
2023-02-02T17:39:58.071Z,1.90
2023-02-02T17:55:19.119Z,1.60
2023-02-02T18:10:27.485Z,1.40
2023-02-02T18:25:35.784Z,2.40
2023-02-02T18:40:40.702Z,1.80
2023-02-02T18:55:59.023Z,1.40
2023-02-02T19:27:43.659Z,2.00
2023-02-02T19:58:57.933Z,3.80
2023-02-02T20:14:19.067Z,3.60
2023-02-02T20:29:32.759Z,2.80
2023-02-02T20:44:39.012Z,6.60
2023-02-02T20:59:44.928Z,9.90
2023-02-02T21:14:49.257Z,7.60
2023-02-02T21:30:12.488Z,8.80
2023-02-02T21:45:36.362Z,4.70
2023-02-02T22:00:42.383Z,5.40
2023-02-02T22:15:49.430Z,5.60
2023-02-02T22:30:56.523Z,6.10
2023-02-02T23:01:18.633Z,6.60
2023-02-02T23:16:22.883Z,6.80
2023-02-02T23:31:27.169Z,7.20
